Time;durP1;ratioP1;P1;durP2;ratioP2;P2;SDS_P1;SDS_P2;PMS_P1;PMS_P2;Temp;Humidity;BMP_temperature;BMP_pressure;BME280_temperature;BME280_humidity;BME280_pressure;Samples;Min_cycle;Max_cycle;Signal;HPM_P1;HPM_P2
2022/03/30 00:01:52;;;;;;;16.03;6.57;;;2.60;1.00;;;;;;5092312;28;20354;-72
2022/03/30 00:04:21;;;;;;;12.00;6.53;;;2.40;1.00;;;;;;5093316;28;20214;-72
2022/03/30 00:06:48;;;;;;;12.83;5.90;;;2.20;1.00;;;;;;5092161;28;20194;-72
2022/03/30 00:09:15;;;;;;;17.17;6.57;;;2.30;1.00;;;;;;5091613;28;20349;-72
2022/03/30 00:11:42;;;;;;;16.43;6.57;;;2.30;1.00;;;;;;5092553;28;20334;-72
2022/03/30 00:14:09;;;;;;;12.67;5.63;;;2.30;1.00;;;;;;5091034;28;20418;-72
2022/03/30 00:16:36;;;;;;;14.50;5.80;;;2.20;1.00;;;;;;5091912;28;20245;-72
2022/03/30 00:19:03;;;;;;;14.43;5.93;;;2.30;1.00;;;;;;5092581;28;20501;-73
2022/03/30 00:21:32;;;;;;;14.87;6.40;;;2.40;1.00;;;;;;5091485;28;20682;-72
2022/03/30 00:23:59;;;;;;;16.60;6.27;;;2.50;1.00;;;;;;5092452;28;20231;-72
2022/03/30 00:26:26;;;;;;;13.87;7.07;;;2.50;1.00;;;;;;5092081;28;20205;-72
2022/03/30 00:28:53;;;;;;;16.70;6.60;;;2.30;1.00;;;;;;5091723;28;20213;-72
2022/03/30 00:31:20;;;;;;;15.20;6.60;;;2.00;1.00;;;;;;5091999;28;20235;-72
2022/03/30 00:33:48;;;;;;;14.60;6.00;;;2.10;1.00;;;;;;5092353;28;20254;-72
2022/03/30 00:36:15;;;;;;;17.17;6.27;;;1.80;1.00;;;;;;5092669;28;20643;-72
2022/03/30 00:38:43;;;;;;;16.33;6.60;;;1.80;1.00;;;;;;5091124;28;20248;-72
2022/03/30 00:41:10;;;;;;;14.03;6.67;;;1.90;1.00;;;;;;5091769;28;20194;-72
2022/03/30 00:43:37;;;;;;;12.73;6.07;;;2.00;1.00;;;;;;5091252;28;20198;-72
2022/03/30 00:46:05;;;;;;;15.87;6.43;;;1.80;1.00;;;;;;5091047;28;20217;-72
2022/03/30 00:48:32;;;;;;;14.97;6.67;;;1.60;1.00;;;;;;5091997;28;20205;-72
2022/03/30 00:50:59;;;;;;;16.90;7.40;;;1.40;1.00;;;;;;5090533;28;20422;-73
2022/03/30 00:53:26;;;;;;;15.60;7.50;;;1.30;1.00;;;;;;5091679;28;20279;-73
2022/03/30 00:55:55;;;;;;;15.97;7.63;;;1.40;1.00;;;;;;5092130;28;20194;-73
2022/03/30 00:58:23;;;;;;;14.20;5.87;;;1.60;1.00;;;;;;5091442;28;20205;-73
2022/03/30 01:00:50;;;;;;;14.50;6.50;;;1.70;1.00;;;;;;5091724;28;20202;-72
2022/03/30 01:03:17;;;;;;;18.37;6.63;;;1.70;1.00;;;;;;5092064;28;20251;-72
2022/03/30 01:05:44;;;;;;;18.43;6.40;;;1.70;1.00;;;;;;5090420;28;20232;-73
2022/03/30 01:08:11;;;;;;;15.70;6.70;;;1.80;1.00;;;;;;5092315;28;20284;-73
2022/03/30 01:10:38;;;;;;;17.13;6.77;;;1.70;1.00;;;;;;5091587;28;20541;-73
2022/03/30 01:13:08;;;;;;;13.30;6.50;;;1.80;1.00;;;;;;5090313;28;20552;-73
2022/03/30 01:15:35;;;;;;;15.97;6.00;;;1.80;1.00;;;;;;5091053;28;20255;-72
2022/03/30 01:18:03;;;;;;;13.17;6.50;;;1.80;1.00;;;;;;5090473;28;20605;-72
2022/03/30 01:20:30;;;;;;;16.00;6.50;;;1.60;1.00;;;;;;5090346;28;20663;-73
2022/03/30 01:22:59;;;;;;;14.53;6.70;;;1.60;1.00;;;;;;5092332;28;20247;-73
2022/03/30 01:25:26;;;;;;;17.30;6.97;;;1.60;1.00;;;;;;5091561;28;20299;-72
2022/03/30 01:27:53;;;;;;;15.50;6.90;;;1.60;1.00;;;;;;5091120;28;20198;-72
2022/03/30 01:33:07;;;;;;;17.50;6.83;;;1.20;1.00;;;;;;5091850;28;20752;-72
2022/03/30 01:35:35;;;;;;;15.07;7.17;;;1.20;1.00;;;;;;5090103;28;20206;-72
2022/03/30 01:38:04;;;;;;;16.20;7.73;;;1.30;1.00;;;;;;5090973;28;20206;-72
2022/03/30 01:40:31;;;;;;;21.53;8.10;;;1.30;1.00;;;;;;5089153;28;20202;-73
2022/03/30 01:42:58;;;;;;;16.93;7.43;;;1.60;1.00;;;;;;5090783;28;20216;-72
2022/03/30 01:45:25;;;;;;;14.33;7.13;;;1.60;1.00;;;;;;5089721;28;20226;-72
2022/03/30 01:47:54;;;;;;;15.30;7.37;;;1.60;1.00;;;;;;5083271;28;20214;-72
2022/03/30 01:50:22;;;;;;;18.23;8.03;;;1.50;1.00;;;;;;5091474;28;20248;-72
2022/03/30 01:52:49;;;;;;;19.73;7.87;;;1.50;1.00;;;;;;5089425;28;20670;-71
2022/03/30 01:55:18;;;;;;;15.63;6.93;;;1.40;1.00;;;;;;5091175;28;20379;-71
2022/03/30 01:57:45;;;;;;;19.53;7.23;;;1.40;1.00;;;;;;5089987;28;20545;-72
2022/03/30 02:00:15;;;;;;;16.97;7.97;;;1.40;1.00;;;;;;5091580;28;20267;-72
2022/03/30 02:02:42;;;;;;;14.00;7.37;;;1.30;1.00;;;;;;5090109;28;20212;-72
2022/03/30 02:05:10;;;;;;;16.27;7.53;;;1.40;1.00;;;;;;5089386;28;20274;-73
2022/03/30 02:07:38;;;;;;;17.77;7.53;;;1.40;1.00;;;;;;5089482;28;20255;-73
2022/03/30 02:10:07;;;;;;;14.83;7.33;;;1.20;1.00;;;;;;5091366;28;20190;-72
2022/03/30 02:12:36;;;;;;;17.33;7.47;;;1.00;1.00;;;;;;5089697;28;20206;-71
2022/03/30 02:15:03;;;;;;;17.30;6.63;;;0.80;1.00;;;;;;5089643;28;20652;-73
2022/03/30 02:17:30;;;;;;;13.60;6.07;;;0.50;1.00;;;;;;5089871;28;20197;-72
2022/03/30 02:19:57;;;;;;;13.07;6.40;;;0.20;1.00;;;;;;5088921;28;20201;-72
2022/03/30 02:22:24;;;;;;;14.33;6.47;;;0.10;1.00;;;;;;5089175;28;20198;-71
2022/03/30 02:24:52;;;;;;;12.90;6.30;;;0.20;1.00;;;;;;5090958;28;20271;-71
2022/03/30 02:27:20;;;;;;;12.77;6.27;;;0.30;1.00;;;;;;5090297;28;20205;-71
2022/03/30 02:29:49;;;;;;;16.90;6.93;;;0.50;1.00;;;;;;5090220;28;20196;-72
2022/03/30 02:32:16;;;;;;;12.83;6.27;;;0.60;1.00;;;;;;5089479;28;20201;-72
2022/03/30 02:34:44;;;;;;;14.30;6.77;;;0.70;1.00;;;;;;5081056;28;20193;-71
2022/03/30 02:37:11;;;;;;;12.93;6.07;;;0.60;1.00;;;;;;5090075;28;20204;-71
2022/03/30 02:39:39;;;;;;;15.17;6.30;;;0.70;1.00;;;;;;5089040;28;20210;-73
2022/03/30 02:42:07;;;;;;;17.07;6.50;;;0.50;1.00;;;;;;5089363;28;20709;-71
2022/03/30 02:44:35;;;;;;;16.20;6.93;;;0.40;1.00;;;;;;5090594;28;20209;-73
2022/03/30 02:47:06;;;;;;;16.27;6.97;;;0.40;1.00;;;;;;5090503;28;20516;-72
2022/03/30 02:49:33;;;;;;;14.27;6.47;;;0.40;1.00;;;;;;5090585;28;20284;-72
2022/03/30 02:52:00;;;;;;;16.33;7.13;;;0.60;1.00;;;;;;5090079;28;20229;-72
2022/03/30 02:54:27;;;;;;;18.40;7.23;;;0.70;1.00;;;;;;5090679;28;20240;-72
2022/03/30 02:56:54;;;;;;;13.83;6.80;;;0.80;1.00;;;;;;5088816;28;20201;-73
2022/03/30 02:59:21;;;;;;;16.63;7.70;;;0.80;1.00;;;;;;5089902;28;20206;-72
2022/03/30 03:01:48;;;;;;;12.07;5.77;;;0.70;1.00;;;;;;5090363;28;20533;-73
2022/03/30 03:04:17;;;;;;;15.83;6.90;;;0.80;1.00;;;;;;5084063;28;20205;-72
2022/03/30 03:06:44;;;;;;;16.97;6.67;;;0.80;1.00;;;;;;5093472;28;20675;-72
2022/03/30 03:09:11;;;;;;;15.47;6.73;;;0.80;1.00;;;;;;5094362;28;20237;-72
2022/03/30 03:11:38;;;;;;;14.13;6.50;;;0.60;1.00;;;;;;5095091;28;20213;-73
2022/03/30 03:14:07;;;;;;;14.90;6.37;;;0.70;1.00;;;;;;5095027;28;20263;-71
2022/03/30 03:16:34;;;;;;;20.30;7.07;;;0.60;1.00;;;;;;5093004;28;20208;-72
2022/03/30 03:19:01;;;;;;;17.07;8.00;;;0.50;1.00;;;;;;5094508;28;20206;-72
2022/03/30 03:21:30;;;;;;;15.77;7.53;;;0.40;1.00;;;;;;5093992;28;20233;-71
2022/03/30 03:23:57;;;;;;;21.23;7.17;;;0.30;1.00;;;;;;5094595;28;20225;-72
2022/03/30 03:26:24;;;;;;;14.67;7.10;;;0.40;1.00;;;;;;5094410;28;20345;-73
2022/03/30 03:28:51;;;;;;;15.80;6.37;;;0.20;1.00;;;;;;5093556;28;20330;-73
2022/03/30 03:31:18;;;;;;;13.43;6.13;;;0.40;1.00;;;;;;5094728;28;20624;-72
2022/03/30 03:33:45;;;;;;;13.73;6.30;;;0.30;1.00;;;;;;5093514;28;20229;-72
2022/03/30 03:36:12;;;;;;;16.90;6.77;;;0.10;1.00;;;;;;5094721;28;20194;-72
2022/03/30 03:38:41;;;;;;;16.30;6.87;;;0.30;1.00;;;;;;5093388;28;20648;-72
2022/03/30 03:41:08;;;;;;;15.93;8.20;;;0.50;1.00;;;;;;5092833;28;20255;-72
2022/03/30 03:43:36;;;;;;;18.50;7.23;;;0.50;3.00;;;;;;5092816;28;20243;-72
2022/03/30 03:46:03;;;;;;;15.03;7.30;;;0.60;29.00;;;;;;5093892;28;20298;-71
2022/03/30 03:48:30;;;;;;;14.70;6.57;;;0.70;51.50;;;;;;5093873;28;20796;-72
2022/03/30 03:50:57;;;;;;;15.83;6.97;;;0.70;42.60;;;;;;5092289;28;20524;-73
2022/03/30 03:53:24;;;;;;;15.87;6.53;;;0.70;19.00;;;;;;5093662;28;20555;-72
2022/03/30 03:55:52;;;;;;;12.63;5.77;;;0.70;23.00;;;;;;5092315;28;20259;-72
2022/03/30 03:58:20;;;;;;;16.50;6.23;;;0.70;40.60;;;;;;5092850;28;20194;-72
2022/03/30 04:00:46;;;;;;;14.50;6.07;;;0.70;36.80;;;;;;5093970;28;20247;-72
2022/03/30 04:03:14;;;;;;;13.60;5.47;;;0.70;1.00;;;;;;5093194;28;20206;-72
2022/03/30 04:05:41;;;;;;;15.03;5.67;;;0.70;1.00;;;;;;5092641;28;20279;-74
2022/03/30 04:08:10;;;;;;;14.40;5.60;;;0.80;1.00;;;;;;5092940;28;20202;-74
2022/03/30 04:10:37;;;;;;;13.53;6.90;;;0.90;1.00;;;;;;5093710;28;20201;-74
2022/03/30 04:13:06;;;;;;;16.27;6.30;;;0.80;1.00;;;;;;5093478;28;20652;-74
2022/03/30 04:15:33;;;;;;;13.00;5.87;;;0.70;1.00;;;;;;5093903;28;20715;-72
2022/03/30 04:18:00;;;;;;;19.77;6.77;;;0.90;39.10;;;;;;5092098;28;20209;-72
2022/03/30 04:20:28;;;;;;;14.70;6.30;;;1.10;99.90;;;;;;5093948;28;20202;-72
2022/03/30 04:22:55;;;;;;;13.83;5.47;;;1.20;93.80;;;;;;5091525;28;20197;-73
2022/03/30 04:25:23;;;;;;;14.17;5.83;;;1.10;51.10;;;;;;5088870;28;20220;-73
2022/03/30 04:27:53;;;;;;;12.33;5.77;;;1.00;56.20;;;;;;5078246;28;20293;-72
2022/03/30 04:30:23;;;;;;;13.93;6.13;;;1.10;95.70;;;;;;5089277;28;20255;-72
2022/03/30 04:32:50;;;;;;;12.73;5.30;;;1.10;99.90;;;;;;5092968;28;20198;-72
2022/03/30 04:35:22;;;;;;;13.67;5.97;;;1.10;99.90;;;;;;5093048;28;20247;-72
2022/03/30 04:37:49;;;;;;;15.63;5.67;;;1.10;99.90;;;;;;5092147;28;20549;-72
2022/03/30 04:40:16;;;;;;;16.67;5.63;;;1.20;99.90;;;;;;5091643;28;20271;-72
2022/03/30 04:42:43;;;;;;;18.53;6.20;;;1.40;99.90;;;;;;5093457;28;20198;-72
2022/03/30 04:45:10;;;;;;;16.63;6.33;;;1.50;99.90;;;;;;5093200;28;20608;-72
2022/03/30 04:47:38;;;;;;;12.77;5.27;;;1.50;99.90;;;;;;5093212;28;20275;-72
2022/03/30 04:50:06;;;;;;;14.40;5.40;;;1.60;99.90;;;;;;5093497;28;20724;-72
2022/03/30 04:52:33;;;;;;;14.10;5.50;;;1.60;99.90;;;;;;5091877;28;20522;-72
2022/03/30 04:55:00;;;;;;;15.90;5.73;;;1.50;99.90;;;;;;5092919;28;20198;-72
2022/03/30 04:57:27;;;;;;;14.53;5.80;;;1.30;99.90;;;;;;5091954;28;20251;-74
2022/03/30 04:59:54;;;;;;;14.27;6.03;;;1.40;99.90;;;;;;5092574;28;20232;-71
2022/03/30 05:02:22;;;;;;;26.07;7.67;;;1.40;99.90;;;;;;5093024;28;20243;-72
2022/03/30 05:04:50;;;;;;;19.83;6.70;;;1.40;99.90;;;;;;5092101;28;20241;-72
2022/03/30 05:07:17;;;;;;;19.33;6.80;;;1.30;99.90;;;;;;5091855;28;20268;-72
2022/03/30 05:09:44;;;;;;;23.97;7.77;;;1.20;99.90;;;;;;5092712;28;20213;-72
2022/03/30 05:12:11;;;;;;;23.30;7.60;;;1.20;99.90;;;;;;5091115;28;20708;-72
2022/03/30 05:14:38;;;;;;;22.20;7.23;;;1.10;99.90;;;;;;5092036;28;20210;-72
2022/03/30 05:17:05;;;;;;;16.10;6.70;;;1.30;99.90;;;;;;5092422;28;20213;-71
2022/03/30 05:19:32;;;;;;;20.20;8.53;;;1.50;99.90;;;;;;5092392;28;20186;-74
2022/03/30 05:22:01;;;;;;;16.83;8.07;;;1.50;99.90;;;;;;5090985;28;20258;-74
2022/03/30 05:24:28;;;;;;;20.40;8.83;;;1.50;99.90;;;;;;5092420;28;20197;-74
2022/03/30 05:26:55;;;;;;;18.93;7.50;;;1.30;99.90;;;;;;5091743;28;20225;-74
2022/03/30 05:29:22;;;;;;;16.07;6.97;;;1.20;99.90;;;;;;5089781;28;20271;-74
2022/03/30 05:31:49;;;;;;;16.90;7.77;;;1.30;99.90;;;;;;5091202;28;20510;-74
2022/03/30 05:34:16;;;;;;;14.13;6.80;;;1.40;99.90;;;;;;5091964;28;20231;-74
2022/03/30 05:36:43;;;;;;;18.77;7.23;;;1.50;99.90;;;;;;5091922;28;20270;-74
2022/03/30 05:39:12;;;;;;;23.03;8.33;;;1.60;99.90;;;;;;5091084;28;20255;-74
2022/03/30 05:41:39;;;;;;;21.13;7.30;;;1.70;99.90;;;;;;5092024;28;20206;-74
2022/03/30 05:44:06;;;;;;;18.27;8.00;;;1.60;99.90;;;;;;5090025;28;20198;-74
2022/03/30 05:46:35;;;;;;;26.73;8.03;;;1.50;99.90;;;;;;5092054;28;20271;-74
2022/03/30 05:49:02;;;;;;;18.53;8.03;;;1.40;99.90;;;;;;5091243;28;20202;-74
2022/03/30 05:51:29;;;;;;;18.17;7.93;;;1.60;99.90;;;;;;5092146;28;20206;-74
2022/03/30 05:53:56;;;;;;;19.70;8.67;;;1.80;99.90;;;;;;5092705;28;20259;-74
2022/03/30 05:57:00;;;;;;;24.83;9.73;;;2.00;99.90;;;;;;5090544;28;20251;-74
2022/03/30 05:59:15;;;;;;;23.90;7.80;;;2.20;99.90;;;;;;5071451;28;20578;-73
2022/03/30 06:01:42;;;;;;;25.30;8.97;;;2.30;94.70;;;;;;5073365;28;20560;-73
2022/03/30 06:04:09;;;;;;;27.90;8.50;;;2.30;53.10;;;;;;5091663;28;20244;-73
2022/03/30 06:06:36;;;;;;;29.00;8.03;;;2.30;15.30;;;;;;5089411;28;20274;-74
2022/03/30 06:09:07;;;;;;;25.10;8.57;;;2.40;99.30;;;;;;5091937;28;20202;-74
2022/03/30 06:11:35;;;;;;;29.50;8.63;;;2.90;98.70;;;;;;5092164;28;20537;-74
2022/03/30 06:14:02;;;;;;;23.67;7.67;;;3.10;1.00;;;;;;5090895;28;20674;-72
2022/03/30 06:16:29;;;;;;;19.97;9.07;;;3.30;1.00;;;;;;5092506;28;20546;-72
2022/03/30 06:18:57;;;;;;;30.50;8.30;;;3.50;1.00;;;;;;5089953;28;20246;-71
2022/03/30 06:21:24;;;;;;;45.83;11.97;;;3.60;1.00;;;;;;5091797;28;20197;-75
2022/03/30 06:23:51;;;;;;;52.03;10.90;;;3.60;1.00;;;;;;5091520;28;20290;-72
2022/03/30 06:26:18;;;;;;;35.67;8.87;;;3.60;1.00;;;;;;5090333;28;20221;-74
2022/03/30 06:28:47;;;;;;;39.77;10.03;;;3.70;1.00;;;;;;5091120;28;20197;-74
2022/03/30 06:31:17;;;;;;;32.77;9.47;;;3.60;1.00;;;;;;5091225;28;20205;-74
2022/03/30 06:33:44;;;;;;;29.00;8.57;;;3.60;1.00;;;;;;5091955;28;20214;-72
2022/03/30 06:36:11;;;;;;;24.33;8.87;;;3.60;1.00;;;;;;5091466;28;20241;-75
2022/03/30 06:38:38;;;;;;;19.03;8.50;;;3.60;1.00;;;;;;5090746;28;20631;-75
2022/03/30 06:41:07;;;;;;;21.30;8.97;;;3.60;1.00;;;;;;5090801;28;20231;-75
2022/03/30 06:43:34;;;;;;;23.97;11.17;;;3.70;1.00;;;;;;5091410;28;20217;-76
2022/03/30 06:46:02;;;;;;;20.53;8.77;;;3.40;1.00;;;;;;5089804;28;20205;-75
2022/03/30 06:48:30;;;;;;;21.97;10.27;;;3.40;1.00;;;;;;5090873;28;20205;-75
2022/03/30 06:50:57;;;;;;;20.83;9.27;;;3.40;1.00;;;;;;5090523;28;20205;-75
2022/03/30 06:53:24;;;;;;;24.03;9.70;;;3.60;1.00;;;;;;5090409;28;20205;-72
2022/03/30 06:55:52;;;;;;;21.53;9.40;;;3.50;1.00;;;;;;5091463;28;20278;-72
2022/03/30 06:58:19;;;;;;;24.10;9.43;;;3.60;1.00;;;;;;5089835;28;20206;-72
2022/03/30 07:00:46;;;;;;;33.70;9.60;;;3.70;1.00;;;;;;5091128;28;20213;-74
2022/03/30 07:03:15;;;;;;;25.93;10.17;;;3.80;1.00;;;;;;5091326;28;20202;-73
2022/03/30 07:05:42;;;;;;;59.30;15.20;;;4.00;1.00;;;;;;5090526;28;20263;-74
2022/03/30 07:10:54;;;;;;;64.23;13.97;;;4.20;1.00;;;;;;5089463;28;20239;-72
2022/03/30 07:13:22;;;;;;;44.93;13.80;;;4.40;1.00;;;;;;5089840;28;20198;-73
2022/03/30 07:15:49;;;;;;;56.30;14.57;;;4.60;1.00;;;;;;5091126;28;20208;-74
2022/03/30 07:18:19;;;;;;;44.37;13.30;;;4.70;99.90;;;;;;5090457;28;20205;-73
2022/03/30 07:20:46;;;;;;;29.17;11.10;;;4.80;99.90;;;;;;5090263;28;20198;-74
2022/03/30 07:23:14;;;;;;;21.83;9.13;;;4.90;99.90;;;;;;5090094;28;20202;-74
2022/03/30 07:25:43;;;;;;;18.63;8.93;;;4.80;99.90;;;;;;5090910;28;20202;-74
2022/03/30 07:28:10;;;;;;;18.43;8.57;;;4.90;99.90;;;;;;5089270;28;20276;-73
2022/03/30 07:30:37;;;;;;;19.00;8.77;;;4.90;1.00;;;;;;5090821;28;20306;-74
2022/03/30 07:33:05;;;;;;;18.80;9.67;;;5.00;99.90;;;;;;5089669;28;20210;-74
2022/03/30 07:35:33;;;;;;;24.20;9.67;;;5.10;99.90;;;;;;5090903;28;20251;-74
2022/03/30 07:38:01;;;;;;;18.63;7.93;;;5.00;99.90;;;;;;5089360;28;20202;-74
2022/03/30 07:40:29;;;;;;;24.67;8.50;;;5.00;16.00;;;;;;5090915;28;20291;-74
2022/03/30 07:42:57;;;;;;;17.77;8.43;;;4.90;1.00;;;;;;5090723;28;20210;-74
2022/03/30 07:45:25;;;;;;;17.77;8.50;;;5.10;1.00;;;;;;5090413;28;20294;-74
2022/03/30 07:47:53;;;;;;;20.20;7.90;;;5.30;1.00;;;;;;5090363;28;20225;-74
2022/03/30 07:50:20;;;;;;;22.63;8.03;;;5.40;1.00;;;;;;5090766;28;20194;-74
2022/03/30 07:52:48;;;;;;;19.73;7.37;;;5.80;1.00;;;;;;5092178;28;20283;-74
2022/03/30 07:55:16;;;;;;;16.57;8.43;;;5.80;1.00;;;;;;5094364;28;20266;-74
2022/03/30 07:57:44;;;;;;;19.80;7.77;;;5.80;1.00;;;;;;5092728;28;20432;-74
2022/03/30 08:00:15;;;;;;;23.10;8.77;;;5.70;1.00;;;;;;5094113;28;20281;-74
2022/03/30 08:02:43;;;;;;;18.00;7.83;;;5.80;99.90;;;;;;5093985;28;20237;-74
2022/03/30 08:05:12;;;;;;;19.07;7.83;;;5.70;1.00;;;;;;5093059;28;20209;-74
2022/03/30 08:07:39;;;;;;;18.53;7.63;;;5.90;1.00;;;;;;5092427;28;20691;-74
2022/03/30 08:10:09;;;;;;;17.97;6.93;;;5.90;1.00;;;;;;5093910;28;20201;-74
2022/03/30 08:12:36;;;;;;;15.33;6.83;;;6.20;1.00;;;;;;5092709;28;20206;-74
2022/03/30 08:15:04;;;;;;;18.43;7.00;;;6.20;1.00;;;;;;5093913;28;20555;-74
2022/03/30 08:17:31;;;;;;;17.03;6.27;;;6.30;1.00;;;;;;5092769;28;20695;-73
2022/03/30 08:19:59;;;;;;;13.00;5.97;;;6.50;1.00;;;;;;5093541;28;20201;-74
2022/03/30 08:22:26;;;;;;;11.10;5.27;;;6.40;1.00;;;;;;5092274;28;20258;-74
2022/03/30 08:24:54;;;;;;;20.47;6.23;;;6.30;99.90;;;;;;5093659;28;20830;-74
2022/03/30 08:27:24;;;;;;;15.83;5.60;;;6.40;1.00;;;;;;5092493;28;20222;-74
2022/03/30 08:29:52;;;;;;;11.10;4.77;;;6.30;99.90;;;;;;5093217;28;20198;-74
2022/03/30 08:32:21;;;;;;;15.33;5.87;;;6.20;1.00;;;;;;5092467;28;20281;-74
2022/03/30 08:34:48;;;;;;;16.43;5.77;;;6.20;1.00;;;;;;5073250;28;20203;-74
2022/03/30 08:37:15;;;;;;;11.73;5.07;;;6.30;99.90;;;;;;5072160;28;20610;-75
2022/03/30 08:39:43;;;;;;;17.70;5.50;;;6.30;99.90;;;;;;5092200;28;20553;-75
2022/03/30 08:42:13;;;;;;;10.60;5.03;;;6.60;1.00;;;;;;5093435;28;20263;-75
2022/03/30 08:44:42;;;;;;;18.90;5.33;;;6.60;1.00;;;;;;5093487;28;20271;-75
2022/03/30 08:47:11;;;;;;;12.43;4.57;;;6.50;99.90;;;;;;5092435;28;20225;-75
2022/03/30 08:49:38;;;;;;;14.43;4.93;;;6.60;99.90;;;;;;5092639;28;20201;-75
2022/03/30 08:52:06;;;;;;;12.90;4.00;;;6.70;29.30;;;;;;5091846;28;20233;-75
2022/03/30 08:54:34;;;;;;;9.77;3.67;;;6.70;37.40;;;;;;5093215;28;20206;-75
2022/03/30 08:57:01;;;;;;;11.17;3.63;;;6.70;1.00;;;;;;5091885;28;20209;-75
2022/03/30 08:59:28;;;;;;;10.30;3.73;;;6.60;1.00;;;;;;5092949;28;20536;-75
2022/03/30 09:01:58;;;;;;;5.70;3.03;;;6.90;1.00;;;;;;5091933;28;20567;-75
2022/03/30 09:04:26;;;;;;;11.63;3.50;;;6.80;1.00;;;;;;5092988;28;20219;-72
2022/03/30 09:06:55;;;;;;;11.53;3.90;;;6.90;1.00;;;;;;5092534;28;20652;-75
2022/03/30 09:09:31;;;;;;;10.53;3.70;;;7.10;1.00;;;;;;5092609;28;20251;-74
2022/03/30 09:11:59;;;;;;;12.73;4.40;;;7.20;1.00;;;;;;5071075;28;20267;-72
2022/03/30 09:14:28;;;;;;;13.30;3.77;;;7.30;99.90;;;;;;5070603;28;20280;-72
2022/03/30 09:16:59;;;;;;;12.67;4.27;;;7.50;99.90;;;;;;5083421;28;20353;-76
2022/03/30 09:19:26;;;;;;;10.77;3.97;;;7.60;99.90;;;;;;5091500;28;20206;-75
2022/03/30 09:21:56;;;;;;;11.17;4.40;;;7.40;99.90;;;;;;5091230;28;20656;-75
2022/03/30 09:24:30;;;;;;;10.87;4.40;;;7.50;99.90;;;;;;5092908;28;20629;-76
2022/03/30 09:26:58;;;;;;;14.27;5.90;;;7.60;99.90;;;;;;5091071;28;20198;-75
2022/03/30 09:29:27;;;;;;;13.53;5.03;;;7.50;99.90;;;;;;5092180;28;20198;-76
2022/03/30 09:31:55;;;;;;;12.07;4.87;;;7.50;99.90;;;;;;5091844;28;20271;-76
2022/03/30 09:34:23;;;;;;;12.13;4.90;;;7.80;99.90;;;;;;5092037;28;20198;-75
2022/03/30 09:36:52;;;;;;;11.47;4.60;;;7.80;99.90;;;;;;5091651;28;20228;-75
2022/03/30 09:39:31;;;;;;;18.20;4.97;;;7.50;99.90;;;;;;5091685;28;20300;-75
2022/03/30 09:41:59;;;;;;;16.23;5.10;;;7.80;99.90;;;;;;5091569;28;20251;-75
2022/03/30 09:44:28;;;;;;;12.77;5.13;;;7.80;99.90;;;;;;5091314;28;20267;-75
2022/03/30 09:46:57;;;;;;;10.23;4.77;;;7.70;6.10;;;;;;5091792;28;20285;-74
2022/03/30 09:49:40;;;;;;;14.47;4.73;;;7.80;1.00;;;;;;5091502;28;20190;-75
2022/03/30 09:52:15;;;;;;;10.83;4.53;;;8.20;1.00;;;;;;5089687;28;20315;-75
2022/03/30 09:54:47;;;;;;;18.43;5.90;;;8.30;1.00;;;;;;5091347;28;20277;-75
2022/03/30 09:57:16;;;;;;;16.07;5.10;;;8.10;1.00;;;;;;5092055;28;20200;-75
2022/03/30 10:00:07;;;;;;;10.20;3.83;;;8.10;1.00;;;;;;5090789;28;20636;-76
2022/03/30 10:02:36;;;;;;;11.00;4.30;;;8.50;1.00;;;;;;5091576;28;20198;-78
2022/03/30 10:05:06;;;;;;;9.23;3.83;;;8.50;1.00;;;;;;5090741;28;20258;-75
2022/03/30 10:07:34;;;;;;;11.63;3.97;;;8.90;1.00;;;;;;5091614;28;20263;-74
2022/03/30 10:10:02;;;;;;;11.27;4.17;;;8.70;1.00;;;;;;5090813;28;20236;-75
2022/03/30 10:12:30;;;;;;;12.13;4.40;;;8.70;1.00;;;;;;5090459;28;20294;-75
2022/03/30 10:14:57;;;;;;;12.13;3.63;;;9.00;1.00;;;;;;5091101;28;20206;-74
2022/03/30 10:17:28;;;;;;;12.43;4.07;;;8.90;1.00;;;;;;5090342;28;20205;-74
2022/03/30 10:19:57;;;;;;;12.20;3.67;;;8.90;1.00;;;;;;5091597;28;20335;-75
2022/03/30 10:22:51;;;;;;;9.97;3.80;;;9.40;99.90;;;;;;5090618;28;20201;-72
2022/03/30 10:25:39;;;;;;;9.00;3.47;;;9.40;99.90;;;;;;5089400;28;20209;-75
2022/03/30 10:28:26;;;;;;;15.30;4.03;;;8.90;99.90;;;;;;5087591;28;20282;-75
2022/03/30 10:30:54;;;;;;;9.60;3.13;;;8.80;99.90;;;;;;5090248;28;20197;-75
2022/03/30 10:33:32;;;;;;;11.97;3.47;;;9.30;90.90;;;;;;5089546;28;20193;-72
2022/03/30 10:36:00;;;;;;;8.40;3.53;;;9.40;4.50;;;;;;5090684;28;20616;-72
2022/03/30 10:38:29;;;;;;;8.00;3.83;;;9.60;84.20;;;;;;5090019;28;20201;-75
2022/03/30 10:41:10;;;;;;;8.53;3.83;;;9.70;90.30;;;;;;5088790;28;20609;-76
2022/03/30 10:43:37;;;;;;;10.13;3.57;;;10.00;93.00;;;;;;5089590;28;20314;-76
2022/03/30 10:46:04;;;;;;;9.67;3.60;;;9.90;1.00;;;;;;5093310;28;20333;-75
2022/03/30 10:48:41;;;;;;;8.97;4.10;;;9.40;1.00;;;;;;5091285;28;20228;-75
2022/03/30 10:51:19;;;;;;;15.20;3.67;;;9.30;23.70;;;;;;5090196;28;20201;-75
2022/03/30 10:53:49;;;;;;;9.17;3.50;;;9.80;1.00;;;;;;5089240;28;20294;-72
2022/03/30 10:56:30;;;;;;;7.43;3.33;;;9.80;1.00;;;;;;5091171;28;20190;-75
2022/03/30 10:59:09;;;;;;;15.53;4.63;;;9.70;1.00;;;;;;5089718;28;20776;-75
2022/03/30 11:01:39;;;;;;;11.23;4.30;;;9.90;1.00;;;;;;5090642;28;20254;-72
2022/03/30 11:04:07;;;;;;;11.77;4.80;;;10.10;1.00;;;;;;5091094;28;20220;-73
2022/03/30 11:06:38;;;;;;;9.57;4.47;;;10.30;1.00;;;;;;5090664;28;20659;-73
2022/03/30 11:09:08;;;;;;;12.33;5.30;;;10.10;1.00;;;;;;5089931;28;20232;-73
2022/03/30 11:11:39;;;;;;;9.33;4.60;;;11.10;1.00;;;;;;5090109;28;20216;-73
2022/03/30 11:14:25;;;;;;;10.07;4.37;;;10.60;1.00;;;;;;5089720;28;20255;-73
2022/03/30 11:16:54;;;;;;;14.37;4.90;;;10.20;1.00;;;;;;5089458;28;20208;-72
2022/03/30 11:19:22;;;;;;;10.63;4.87;;;10.80;1.00;;;;;;5090160;28;20198;-72
2022/03/30 11:22:03;;;;;;;13.50;6.00;;;10.80;1.00;;;;;;5089478;28;20236;-75
2022/03/30 11:24:32;;;;;;;14.67;5.17;;;10.40;1.00;;;;;;5076457;28;20216;-76
2022/03/30 11:27:18;;;;;;;15.53;5.30;;;10.40;1.00;;;;;;5096666;28;20551;-75
2022/03/30 11:29:48;;;;;;;11.97;5.80;;;10.30;1.00;;;;;;5075841;28;20288;-75
2022/03/30 11:32:56;;;;;;;14.10;6.10;;;10.50;1.00;;;;;;5074686;28;20611;-75
2022/03/30 11:35:26;;;;;;;12.87;5.70;;;10.80;1.00;;;;;;5029236;28;20210;-75
2022/03/30 11:38:25;;;;;;;13.80;5.87;;;11.40;1.00;;;;;;5084921;28;20201;-75
2022/03/30 11:41:09;;;;;;;14.93;5.57;;;11.30;1.00;;;;;;5094708;28;20652;-75
2022/03/30 11:46:24;;;;;;;8.97;4.73;;;10.50;1.00;;;;;;5090643;28;20189;-74
2022/03/30 11:48:52;;;;;;;14.43;6.00;;;10.60;1.00;;;;;;5092669;28;20582;-77
2022/03/30 11:51:25;;;;;;;15.20;6.00;;;11.10;1.00;;;;;;5092976;28;20193;-72
2022/03/30 11:54:10;;;;;;;12.23;4.93;;;11.50;1.00;;;;;;5092728;28;20713;-72
2022/03/30 11:56:38;;;;;;;13.30;5.47;;;10.70;1.00;;;;;;5092333;28;20198;-72
2022/03/30 11:59:05;;;;;;;11.43;4.87;;;10.80;1.00;;;;;;5092794;28;20262;-75
2022/03/30 12:01:35;;;;;;;18.07;4.80;;;10.90;1.00;;;;;;5092089;28;20606;-75
2022/03/30 12:04:03;;;;;;;8.53;4.23;;;10.70;1.00;;;;;;5092935;28;20565;-75
2022/03/30 12:06:30;;;;;;;12.10;5.07;;;10.50;1.00;;;;;;5092637;28;20213;-75
2022/03/30 12:08:58;;;;;;;13.40;4.57;;;10.70;1.00;;;;;;5092939;28;20271;-75
2022/03/30 12:11:29;;;;;;;10.87;5.43;;;11.10;1.00;;;;;;5094025;28;20198;-75
2022/03/30 12:13:59;;;;;;;9.63;4.53;;;10.70;1.00;;;;;;5092571;28;20257;-71
2022/03/30 12:16:27;;;;;;;12.90;4.87;;;10.70;1.00;;;;;;5094190;28;20209;-72
2022/03/30 12:18:56;;;;;;;10.40;4.40;;;10.50;1.00;;;;;;5071778;28;20202;-73
2022/03/30 12:21:24;;;;;;;17.73;6.23;;;10.60;1.00;;;;;;5072684;28;20198;-72
2022/03/30 12:23:53;;;;;;;9.07;4.90;;;10.70;1.00;;;;;;5091738;28;20202;-72
2022/03/30 12:26:21;;;;;;;15.40;5.27;;;10.60;1.00;;;;;;5092609;28;20209;-72
2022/03/30 12:28:48;;;;;;;13.30;5.20;;;10.80;1.00;;;;;;5093096;28;20229;-72
2022/03/30 12:31:16;;;;;;;11.07;5.33;;;10.50;1.00;;;;;;5093684;28;20233;-75
2022/03/30 12:33:45;;;;;;;11.33;4.60;;;10.90;1.00;;;;;;5093684;28;20205;-75
2022/03/30 12:36:21;;;;;;;11.00;4.87;;;10.80;1.00;;;;;;5092740;28;20712;-74
2022/03/30 12:38:49;;;;;;;11.47;4.87;;;10.60;1.00;;;;;;5091013;28;20208;-74
2022/03/30 12:41:23;;;;;;;17.07;5.47;;;10.70;1.00;;;;;;5093826;28;20206;-74
2022/03/30 12:43:58;;;;;;;10.53;5.03;;;10.90;1.00;;;;;;5074152;28;20575;-74
2022/03/30 12:46:29;;;;;;;12.33;5.00;;;10.70;1.00;;;;;;5091019;28;20201;-74
2022/03/30 12:49:04;;;;;;;8.43;4.27;;;11.10;1.00;;;;;;5078482;28;20332;-77
2022/03/30 12:51:33;;;;;;;10.93;4.60;;;10.90;1.00;;;;;;5078342;28;20213;-76
2022/03/30 12:54:01;;;;;;;13.23;4.70;;;11.30;1.00;;;;;;5090390;28;20216;-77
2022/03/30 12:56:29;;;;;;;15.13;4.97;;;11.10;1.00;;;;;;5103856;28;20212;-76
2022/03/30 12:58:59;;;;;;;10.90;5.50;;;11.00;1.00;;;;;;5103975;28;20610;-77
2022/03/30 13:01:34;;;;;;;9.33;4.57;;;10.90;1.00;;;;;;5097325;28;20924;-76
2022/03/30 13:04:01;;;;;;;10.07;4.43;;;11.00;1.00;;;;;;5078289;28;20209;-76
2022/03/30 13:06:29;;;;;;;13.33;5.60;;;10.80;1.00;;;;;;5082573;28;20179;-77
2022/03/30 13:09:14;;;;;;;10.73;4.53;;;10.60;1.00;;;;;;5104221;28;20221;-76
2022/03/30 13:11:43;;;;;;;10.53;4.57;;;10.70;1.00;;;;;;5088606;28;20209;-77